createdAt,value
2023-04-05T00:01:22.748Z,10.21
2023-04-05T00:03:27.313Z,10.20
2023-04-05T00:05:31.670Z,10.20
2023-04-05T00:07:36.858Z,10.20
2023-04-05T00:09:40.669Z,10.20
2023-04-05T00:11:44.110Z,10.18
2023-04-05T00:13:47.870Z,10.16
2023-04-05T00:15:51.781Z,10.19
2023-04-05T00:17:55.598Z,10.21
2023-04-05T00:19:59.215Z,10.23
2023-04-05T00:22:03.777Z,10.25
2023-04-05T00:24:15.609Z,10.24
2023-04-05T00:26:20.445Z,10.25
2023-04-05T00:28:30.710Z,10.26
2023-04-05T00:30:35.317Z,10.26
2023-04-05T00:32:39.394Z,10.25
2023-04-05T00:34:42.955Z,10.23
2023-04-05T00:36:46.530Z,10.20
2023-04-05T00:38:51.863Z,10.15
2023-04-05T00:40:57.402Z,10.09
2023-04-05T00:43:01.312Z,10.03
2023-04-05T00:45:06.718Z,9.96
2023-04-05T00:47:10.620Z,9.90
2023-04-05T00:49:14.890Z,9.87
2023-04-05T00:51:20.397Z,9.83
2023-04-05T00:53:25.045Z,9.82
2023-04-05T00:55:30.284Z,9.83
2023-04-05T00:57:39.341Z,9.83
2023-04-05T00:59:43.254Z,9.83
2023-04-05T01:01:55.828Z,9.86
2023-04-05T01:04:03.564Z,9.86
2023-04-05T01:06:23.684Z,9.90
2023-04-05T01:08:35.365Z,9.92
2023-04-05T01:10:46.342Z,9.94
2023-04-05T01:12:51.929Z,9.96
2023-04-05T01:14:57.224Z,9.97
2023-04-05T01:17:00.915Z,10.00
2023-04-05T01:19:05.015Z,10.02
2023-04-05T01:21:30.331Z,10.04
2023-04-05T01:23:46.102Z,10.06
2023-04-05T01:26:29.745Z,10.07
2023-04-05T01:29:12.045Z,10.10
2023-04-05T01:31:24.836Z,10.09
2023-04-05T01:33:36.629Z,10.11
2023-04-05T01:35:46.802Z,10.12
2023-04-05T01:37:55.513Z,10.12
2023-04-05T01:40:00.175Z,10.13
2023-04-05T01:42:04.758Z,10.13
2023-04-05T01:44:09.621Z,10.13
2023-04-05T01:46:13.419Z,10.13
2023-04-05T01:48:19.841Z,10.14
2023-04-05T01:50:23.327Z,10.13
2023-04-05T01:52:27.885Z,10.13
2023-04-05T01:54:31.461Z,10.15
2023-04-05T01:56:35.066Z,10.15
2023-04-05T01:58:40.556Z,10.16
2023-04-05T02:00:44.495Z,10.17
2023-04-05T02:02:48.376Z,10.19
2023-04-05T02:04:53.694Z,10.19
2023-04-05T02:06:58.753Z,10.20
2023-04-05T02:09:02.966Z,10.21
2023-04-05T02:11:06.666Z,10.21
2023-04-05T02:13:10.569Z,10.22
2023-04-05T02:15:14.339Z,10.22
2023-04-05T02:17:18.325Z,10.22
2023-04-05T02:19:23.388Z,10.22
2023-04-05T02:21:28.932Z,10.22
2023-04-05T02:23:33.450Z,10.23
2023-04-05T02:25:36.995Z,10.21
2023-04-05T02:27:41.872Z,10.22
2023-04-05T02:29:47.090Z,10.20
2023-04-05T02:31:52.741Z,10.22
2023-04-05T02:33:58.266Z,10.21
2023-04-05T02:36:05.755Z,10.20
2023-04-05T02:38:11.096Z,10.19
2023-04-05T02:40:17.113Z,10.20
2023-04-05T02:42:20.789Z,10.22
2023-04-05T02:44:27.452Z,10.21
2023-04-05T02:46:31.534Z,10.23
2023-04-05T02:48:36.305Z,10.24
2023-04-05T02:50:41.562Z,10.24
2023-04-05T02:52:45.986Z,10.25
2023-04-05T02:54:51.061Z,10.24
2023-04-05T02:57:02.662Z,10.25
2023-04-05T02:59:15.005Z,10.26
2023-04-05T03:01:21.038Z,10.27
2023-04-05T03:03:25.278Z,10.27
2023-04-05T03:05:31.239Z,10.26
2023-04-05T03:07:35.936Z,10.25
2023-04-05T03:09:44.842Z,10.27
2023-04-05T03:11:50.613Z,10.27
2023-04-05T03:13:54.769Z,10.27
2023-04-05T03:16:13.335Z,10.26
2023-04-05T03:18:20.282Z,10.27
2023-04-05T03:20:26.035Z,10.25
2023-04-05T03:22:34.656Z,10.27
2023-04-05T03:24:39.635Z,10.25
2023-04-05T03:26:46.900Z,10.25
2023-04-05T03:28:54.418Z,10.27
2023-04-05T03:31:04.236Z,10.27
2023-04-05T03:33:08.805Z,10.27
2023-04-05T03:35:19.667Z,10.29
2023-04-05T03:37:24.379Z,10.30
2023-04-05T03:39:36.853Z,10.31
2023-04-05T03:41:41.243Z,10.31
2023-04-05T03:43:45.874Z,10.32
2023-04-05T03:45:50.896Z,10.32
2023-04-05T03:47:55.430Z,10.33
2023-04-05T03:49:59.806Z,10.33
2023-04-05T03:52:03.673Z,10.35
2023-04-05T03:54:07.587Z,10.37
2023-04-05T03:56:13.365Z,10.37
2023-04-05T03:58:23.483Z,10.38
2023-04-05T04:00:27.435Z,10.39
2023-04-05T04:02:58.895Z,10.40
2023-04-05T04:05:02.976Z,10.41
2023-04-05T04:07:07.262Z,10.41
2023-04-05T04:09:11.294Z,10.42
2023-04-05T04:11:15.900Z,10.41
2023-04-05T04:13:19.682Z,10.42
2023-04-05T04:15:29.902Z,10.42
2023-04-05T04:17:45.555Z,10.42
2023-04-05T04:20:12.273Z,10.42
2023-04-05T04:22:33.568Z,10.41
2023-04-05T04:25:04.844Z,10.41
2023-04-05T04:27:22.300Z,10.41
2023-04-05T04:30:03.609Z,10.41
2023-04-05T04:32:55.084Z,10.40
2023-04-05T04:35:25.973Z,10.39
2023-04-05T04:37:37.753Z,10.39
2023-04-05T04:40:09.027Z,10.38
2023-04-05T04:42:47.320Z,10.39
2023-04-05T04:45:10.897Z,10.38
2023-04-05T04:47:23.225Z,10.39
2023-04-05T04:49:40.477Z,10.38
2023-04-05T04:51:45.254Z,10.39
2023-04-05T04:53:48.434Z,10.39
2023-04-05T04:55:51.746Z,10.39
2023-04-05T04:57:55.524Z,10.40
2023-04-05T04:59:58.721Z,10.41
2023-04-05T05:02:02.016Z,10.43
2023-04-05T05:04:05.543Z,10.44
2023-04-05T05:06:12.743Z,10.45
2023-04-05T05:08:21.155Z,10.45
2023-04-05T05:10:24.893Z,10.47
2023-04-05T05:12:30.089Z,10.48
2023-04-05T05:14:33.270Z,10.50
2023-04-05T05:16:36.597Z,10.50
2023-04-05T05:18:41.680Z,10.52
2023-04-05T05:20:44.959Z,10.52
2023-04-05T05:22:48.602Z,10.54
2023-04-05T05:24:53.260Z,10.55
2023-04-05T05:26:56.508Z,10.55
2023-04-05T05:29:02.199Z,10.56
2023-04-05T05:31:07.770Z,10.57
2023-04-05T05:33:12.416Z,10.58
2023-04-05T05:35:17.825Z,10.58
2023-04-05T05:37:23.576Z,10.61
2023-04-05T05:39:26.859Z,10.62
2023-04-05T05:41:31.459Z,10.63
2023-04-05T05:43:34.674Z,10.62
2023-04-05T05:45:38.025Z,10.63
2023-04-05T05:47:42.250Z,10.64
2023-04-05T05:49:45.788Z,10.64
2023-04-05T05:51:49.115Z,10.64
2023-04-05T05:53:52.834Z,10.65
2023-04-05T05:55:56.845Z,10.65
2023-04-05T05:58:01.697Z,10.66
2023-04-05T06:00:09.813Z,10.66
2023-04-05T06:02:16.044Z,10.67
2023-04-05T06:04:19.777Z,10.66
2023-04-05T06:06:23.682Z,10.68
2023-04-05T06:08:28.731Z,10.68
2023-04-05T06:10:31.771Z,10.68
2023-04-05T06:12:35.448Z,10.68
2023-04-05T06:14:40.143Z,10.70
2023-04-05T06:16:43.434Z,10.71
2023-04-05T06:18:46.765Z,10.73
2023-04-05T06:20:50.054Z,10.76
2023-04-05T06:22:53.433Z,10.77
2023-04-05T06:24:56.779Z,10.78
2023-04-05T06:27:00.155Z,10.78
2023-04-05T06:29:03.410Z,10.80
2023-04-05T06:31:09.863Z,10.80
2023-04-05T06:33:13.684Z,10.80
2023-04-05T06:35:17.122Z,10.81
2023-04-05T06:37:20.390Z,10.81
2023-04-05T06:39:23.754Z,10.83
2023-04-05T06:41:27.843Z,10.84
2023-04-05T06:43:32.540Z,10.87
2023-04-05T06:45:36.169Z,10.90
2023-04-05T06:47:42.276Z,10.91
2023-04-05T06:49:45.694Z,10.94
2023-04-05T06:51:48.964Z,10.96
2023-04-05T06:53:52.382Z,10.99
2023-04-05T06:55:55.960Z,11.03
2023-04-05T06:58:00.368Z,11.06
2023-04-05T07:00:09.116Z,11.11
2023-04-05T07:02:13.723Z,11.16
2023-04-05T07:04:19.008Z,11.18
2023-04-05T07:06:23.972Z,11.24
2023-04-05T07:08:28.268Z,11.26
2023-04-05T07:10:31.744Z,11.29
2023-04-05T07:12:35.365Z,11.32
2023-04-05T07:14:39.179Z,11.33
2023-04-05T07:16:42.690Z,11.33
2023-04-05T07:18:46.317Z,11.36
2023-04-05T07:20:51.112Z,11.36
2023-04-05T07:22:54.781Z,11.37
2023-04-05T07:24:58.117Z,11.38
2023-04-05T07:27:02.952Z,11.40
2023-04-05T07:29:08.252Z,11.44
2023-04-05T07:31:12.860Z,11.48
2023-04-05T07:33:16.518Z,11.49
2023-04-05T07:35:19.781Z,11.49
2023-04-05T07:37:27.580Z,11.51
2023-04-05T07:39:31.033Z,11.51
2023-04-05T07:41:35.594Z,11.52
2023-04-05T07:43:38.911Z,11.55
2023-04-05T07:45:42.453Z,11.55
2023-04-05T07:47:46.343Z,11.55
2023-04-05T07:49:49.711Z,11.58
2023-04-05T07:51:56.217Z,11.61
2023-04-05T07:54:03.202Z,11.64
2023-04-05T07:56:07.664Z,11.67
2023-04-05T07:58:11.759Z,11.71
2023-04-05T08:00:16.163Z,11.74
2023-04-05T08:02:20.131Z,11.79
2023-04-05T08:04:26.240Z,11.83
2023-04-05T08:06:29.783Z,11.89
2023-04-05T08:08:33.571Z,11.94
2023-04-05T08:10:41.569Z,11.99
2023-04-05T08:12:45.791Z,12.06
2023-04-05T08:14:49.229Z,12.10
2023-04-05T08:16:52.649Z,12.15
2023-04-05T08:18:56.095Z,12.21
2023-04-05T08:20:59.812Z,12.26
2023-04-05T08:23:03.094Z,12.32
2023-04-05T08:25:07.240Z,12.40
2023-04-05T08:27:11.985Z,12.46
2023-04-05T08:29:16.799Z,12.54
2023-04-05T08:31:21.159Z,12.60
2023-04-05T08:33:28.541Z,12.66
2023-04-05T08:35:31.835Z,12.70
2023-04-05T08:37:36.820Z,12.72
2023-04-05T08:39:40.313Z,12.69
2023-04-05T08:41:51.515Z,12.64
2023-04-05T08:44:02.965Z,12.58
2023-04-05T08:46:10.764Z,12.55
2023-04-05T08:48:14.217Z,12.53
2023-04-05T08:50:18.495Z,12.52
2023-04-05T08:52:21.922Z,12.52
2023-04-05T08:54:25.746Z,12.55
2023-04-05T08:56:33.466Z,12.59
2023-04-05T08:58:38.967Z,12.61
2023-04-05T09:00:45.231Z,12.59
2023-04-05T09:02:51.380Z,12.60
2023-04-05T09:04:55.277Z,12.62
2023-04-05T09:07:00.645Z,12.61
2023-04-05T09:09:08.102Z,12.61
2023-04-05T09:11:13.276Z,12.63
2023-04-05T09:13:17.086Z,12.65
2023-04-05T09:15:24.511Z,12.67
2023-04-05T09:17:32.489Z,12.70
2023-04-05T09:19:36.092Z,12.74
2023-04-05T09:22:02.003Z,12.78
2023-04-05T09:24:09.080Z,12.84
2023-04-05T09:26:22.964Z,12.93
2023-04-05T09:28:46.049Z,13.03
2023-04-05T09:30:49.931Z,13.14
2023-04-05T09:32:55.660Z,13.30
2023-04-05T09:35:01.564Z,13.47
2023-04-05T09:37:16.418Z,13.64
2023-04-05T09:39:23.613Z,13.82
2023-04-05T09:41:27.383Z,13.95
2023-04-05T09:43:41.466Z,14.05
2023-04-05T09:45:46.394Z,14.12
2023-04-05T09:47:58.290Z,14.13
2023-04-05T09:50:02.310Z,14.11
2023-04-05T09:52:05.893Z,14.06
2023-04-05T09:54:12.441Z,13.98
2023-04-05T09:56:16.170Z,13.87
2023-04-05T09:58:22.384Z,13.81
2023-04-05T10:00:26.967Z,13.76
2023-04-05T10:02:38.514Z,13.77
2023-04-05T10:04:45.305Z,13.86
2023-04-05T10:06:49.516Z,13.95
2023-04-05T10:08:54.057Z,14.06
2023-04-05T10:11:00.859Z,14.16
2023-04-05T10:13:07.517Z,14.27
2023-04-05T10:15:14.400Z,14.34
2023-04-05T10:17:25.573Z,14.45
2023-04-05T10:19:38.315Z,14.61
2023-04-05T10:21:46.325Z,14.84
2023-04-05T10:24:08.389Z,15.03
2023-04-05T10:26:19.346Z,15.21
2023-04-05T10:28:31.569Z,15.33
2023-04-05T10:30:38.247Z,15.43
2023-04-05T10:32:54.311Z,15.42
2023-04-05T10:35:05.973Z,15.43
2023-04-05T10:37:24.900Z,15.49
2023-04-05T10:39:30.700Z,15.59
2023-04-05T10:41:38.491Z,15.53
2023-04-05T10:43:43.655Z,15.51
2023-04-05T10:45:50.260Z,15.47
2023-04-05T10:47:59.768Z,15.45
2023-04-05T10:50:06.628Z,15.42
2023-04-05T10:52:13.314Z,15.30
2023-04-05T10:54:18.827Z,15.14
2023-04-05T10:56:23.721Z,14.97
2023-04-05T10:58:28.226Z,14.88
2023-04-05T11:00:32.066Z,14.86
2023-04-05T11:02:36.519Z,14.85
2023-04-05T11:04:42.745Z,14.88
2023-04-05T11:06:48.366Z,14.92
2023-04-05T11:08:57.068Z,14.91
2023-04-05T11:11:00.928Z,14.95
2023-04-05T11:13:12.243Z,14.96
2023-04-05T11:15:33.563Z,15.04
2023-04-05T11:17:37.875Z,15.16
2023-04-05T11:19:52.532Z,15.28
2023-04-05T11:22:03.849Z,15.34
2023-04-05T11:24:12.408Z,15.37
2023-04-05T11:26:17.394Z,15.38
2023-04-05T11:28:26.453Z,15.36
2023-04-05T11:30:48.868Z,15.38
2023-04-05T11:32:53.026Z,15.29
2023-04-05T11:35:01.319Z,15.20
2023-04-05T11:37:04.981Z,15.21
2023-04-05T11:39:31.932Z,15.23
2023-04-05T11:41:36.162Z,15.23
2023-04-05T11:43:39.795Z,15.11
2023-04-05T11:45:43.731Z,15.01
2023-04-05T11:47:47.915Z,14.92
2023-04-05T11:49:52.592Z,14.85
2023-04-05T11:51:56.971Z,14.78
2023-04-05T11:54:00.776Z,14.79
2023-04-05T11:56:12.965Z,14.80
2023-04-05T11:58:18.255Z,14.81
2023-04-05T12:00:24.296Z,14.71
2023-04-05T12:02:27.883Z,14.65
2023-04-05T12:04:31.858Z,14.59
2023-04-05T12:06:35.557Z,14.54
2023-04-05T12:08:50.123Z,14.48
2023-04-05T12:10:57.740Z,14.46
2023-04-05T12:13:02.980Z,14.44
2023-04-05T12:15:10.983Z,14.43
2023-04-05T12:17:15.174Z,14.45
2023-04-05T12:19:20.263Z,14.44
2023-04-05T12:21:24.884Z,14.45
2023-04-05T12:23:29.148Z,14.48
2023-04-05T12:25:33.709Z,14.54
2023-04-05T12:27:39.651Z,14.54
2023-04-05T12:30:17.936Z,14.55
2023-04-05T12:32:22.700Z,14.55
2023-04-05T12:34:27.253Z,14.54
2023-04-05T12:36:32.973Z,14.50
2023-04-05T12:38:39.522Z,14.51
2023-04-05T12:40:44.852Z,14.49
2023-04-05T12:42:48.619Z,14.51
2023-04-05T12:45:06.530Z,14.54
2023-04-05T12:47:11.482Z,14.53
2023-04-05T12:49:17.511Z,14.60
2023-04-05T12:51:21.069Z,14.65
2023-04-05T12:53:28.723Z,14.71
2023-04-05T12:55:32.812Z,14.74
2023-04-05T12:57:37.073Z,14.77
2023-04-05T12:59:40.717Z,14.80
2023-04-05T13:01:45.932Z,14.78
2023-04-05T13:03:52.109Z,14.71
2023-04-05T13:05:58.652Z,14.69
2023-04-05T13:08:02.878Z,14.68
2023-04-05T13:10:07.912Z,14.69
2023-04-05T13:12:11.759Z,14.70
2023-04-05T13:14:16.069Z,14.74
2023-04-05T13:16:21.141Z,14.79
2023-04-05T13:18:27.040Z,14.85
2023-04-05T13:20:33.704Z,14.88
2023-04-05T13:22:38.432Z,14.92
2023-04-05T13:24:42.096Z,14.92
2023-04-05T13:26:46.661Z,14.88
2023-04-05T13:28:50.593Z,14.83
2023-04-05T13:30:54.690Z,14.76
2023-04-05T13:32:59.124Z,14.74
2023-04-05T13:35:07.685Z,14.75
2023-04-05T13:37:12.869Z,14.73
2023-04-05T13:39:16.921Z,14.75
2023-04-05T13:41:21.500Z,14.74
2023-04-05T13:43:27.052Z,14.72
2023-04-05T13:45:31.765Z,14.68
2023-04-05T13:47:35.798Z,14.68
2023-04-05T13:49:39.705Z,14.68
2023-04-05T13:51:45.024Z,14.68
2023-04-05T13:53:49.328Z,14.73
2023-04-05T13:55:53.274Z,14.78
2023-04-05T13:57:57.238Z,14.80
2023-04-05T14:00:01.584Z,14.80
2023-04-05T14:02:15.540Z,14.77
2023-04-05T14:04:20.773Z,14.75
2023-04-05T14:06:25.165Z,14.76
2023-04-05T14:08:30.977Z,14.73
2023-04-05T14:10:35.686Z,14.71
2023-04-05T14:12:41.008Z,14.67
2023-04-05T14:14:48.846Z,14.69
2023-04-05T14:16:56.794Z,14.68
2023-04-05T14:19:06.328Z,14.64
2023-04-05T14:21:12.526Z,14.64
2023-04-05T14:23:17.733Z,14.65
2023-04-05T14:25:23.849Z,14.63
2023-04-05T14:27:28.970Z,14.62
2023-04-05T14:29:35.841Z,14.58
2023-04-05T14:31:44.699Z,14.54
2023-04-05T14:33:52.032Z,14.51
2023-04-05T14:36:00.010Z,14.49
2023-04-05T14:38:05.078Z,14.46
2023-04-05T14:40:10.140Z,14.43
2023-04-05T14:42:16.225Z,14.41
2023-04-05T14:44:20.775Z,14.39
2023-04-05T14:46:30.616Z,14.37
2023-04-05T14:48:35.309Z,14.36
2023-04-05T14:50:44.611Z,14.33
2023-04-05T14:52:49.884Z,14.33
2023-04-05T14:54:54.622Z,14.31
2023-04-05T14:56:59.300Z,14.28
2023-04-05T14:59:05.189Z,14.23
2023-04-05T15:01:10.502Z,14.17
2023-04-05T15:03:15.306Z,14.11
2023-04-05T15:05:20.086Z,14.05
2023-04-05T15:07:24.149Z,13.99
2023-04-05T15:09:28.113Z,13.94
2023-04-05T15:11:34.473Z,13.94
2023-04-05T15:13:40.160Z,13.92
2023-04-05T15:15:45.843Z,13.92
2023-04-05T15:17:50.126Z,13.95
2023-04-05T15:19:54.337Z,13.97
2023-04-05T15:21:58.107Z,13.98
2023-04-05T15:24:02.431Z,13.98
2023-04-05T15:26:06.322Z,13.94
2023-04-05T15:28:10.676Z,13.87
2023-04-05T15:30:15.877Z,13.80
2023-04-05T15:32:21.449Z,13.70
2023-04-05T15:34:25.742Z,13.59
2023-04-05T15:36:29.417Z,13.43
2023-04-05T15:38:33.652Z,13.26
2023-04-05T15:40:38.413Z,13.11
2023-04-05T15:42:43.167Z,12.97
2023-04-05T15:44:47.641Z,12.88
2023-04-05T15:46:53.491Z,12.78
2023-04-05T15:49:00.584Z,12.69
2023-04-05T15:51:05.462Z,12.60
2023-04-05T15:53:10.083Z,12.55
2023-04-05T15:55:14.595Z,12.50
2023-04-05T15:57:20.087Z,12.47
2023-04-05T15:59:24.251Z,12.45
2023-04-05T16:01:28.584Z,12.42
2023-04-05T16:03:34.190Z,12.43
2023-04-05T16:05:40.742Z,12.46
2023-04-05T16:07:46.834Z,12.45
2023-04-05T16:09:51.493Z,12.43
2023-04-05T16:11:56.614Z,12.38
2023-04-05T16:14:04.625Z,12.35
2023-04-05T16:16:09.900Z,12.36
2023-04-05T16:18:14.958Z,12.38
2023-04-05T16:20:19.754Z,12.36
2023-04-05T16:22:25.987Z,12.37
2023-04-05T16:24:31.907Z,12.40
2023-04-05T16:26:36.241Z,12.42
2023-04-05T16:28:39.922Z,12.43
2023-04-05T16:30:46.329Z,12.43
2023-04-05T16:32:53.106Z,12.43
2023-04-05T16:34:57.033Z,12.43
2023-04-05T16:37:01.048Z,12.45
2023-04-05T16:39:07.980Z,12.51
2023-04-05T16:41:11.859Z,12.58
2023-04-05T16:43:16.586Z,12.63
2023-04-05T16:45:20.958Z,12.70
2023-04-05T16:47:25.249Z,12.81
2023-04-05T16:49:29.274Z,12.90
2023-04-05T16:51:33.253Z,12.99
2023-04-05T16:53:37.713Z,13.04
2023-04-05T16:55:44.773Z,13.08
2023-04-05T16:57:48.780Z,13.10
2023-04-05T16:59:52.808Z,13.09
2023-04-05T17:01:56.664Z,13.07
2023-04-05T17:04:01.513Z,13.05
2023-04-05T17:06:05.283Z,12.99
2023-04-05T17:08:09.380Z,12.96
2023-04-05T17:10:13.273Z,12.90
2023-04-05T17:12:19.099Z,12.88
2023-04-05T17:14:23.617Z,12.87
2023-04-05T17:16:28.313Z,12.88
2023-04-05T17:18:32.222Z,12.89
2023-04-05T17:20:36.414Z,12.88
2023-04-05T17:22:43.376Z,12.88
2023-04-05T17:24:47.819Z,12.89
2023-04-05T17:26:52.059Z,12.85
2023-04-05T17:28:58.031Z,12.81
2023-04-05T17:31:01.621Z,12.77
2023-04-05T17:33:06.540Z,12.75
2023-04-05T17:35:10.460Z,12.73
2023-04-05T17:37:14.738Z,12.71
2023-04-05T17:39:19.298Z,12.71
2023-04-05T17:41:23.975Z,12.74
2023-04-05T17:43:27.927Z,12.73
2023-04-05T17:45:33.605Z,12.75
2023-04-05T17:47:37.365Z,12.74
2023-04-05T17:49:43.040Z,12.74
2023-04-05T17:51:48.748Z,12.73
2023-04-05T17:53:52.586Z,12.72
2023-04-05T17:55:57.438Z,12.69
2023-04-05T17:58:01.875Z,12.66
2023-04-05T18:00:07.303Z,12.65
2023-04-05T18:02:13.149Z,12.65
2023-04-05T18:04:17.793Z,12.66
2023-04-05T18:06:22.967Z,12.69
2023-04-05T18:08:27.737Z,12.67
2023-04-05T18:10:32.419Z,12.67
2023-04-05T18:12:37.965Z,12.65
2023-04-05T18:14:42.524Z,12.64
2023-04-05T18:16:47.095Z,12.63
2023-04-05T18:18:53.157Z,12.62
2023-04-05T18:20:58.254Z,12.61
2023-04-05T18:23:02.565Z,12.60
2023-04-05T18:25:09.153Z,12.56
2023-04-05T18:27:13.331Z,12.56
2023-04-05T18:29:17.689Z,12.52
2023-04-05T18:31:23.238Z,12.52
2023-04-05T18:33:27.630Z,12.50
2023-04-05T18:35:33.865Z,12.47
2023-04-05T18:37:38.487Z,12.45
2023-04-05T18:39:43.986Z,12.41
2023-04-05T18:41:48.196Z,12.37
2023-04-05T18:43:55.314Z,12.33
2023-04-05T18:46:00.096Z,12.30
2023-04-05T18:48:04.958Z,12.26
2023-04-05T18:50:11.204Z,12.22
2023-04-05T18:52:22.584Z,12.17
2023-04-05T18:54:27.375Z,12.14
2023-04-05T18:56:32.191Z,12.09
2023-04-05T18:58:38.056Z,12.05
2023-04-05T19:00:42.767Z,12.01
2023-04-05T19:02:47.890Z,11.98
2023-04-05T19:04:53.689Z,11.93
2023-04-05T19:07:00.759Z,11.92
2023-04-05T19:09:08.449Z,11.89
2023-04-05T19:11:15.233Z,11.87
2023-04-05T19:13:20.102Z,11.85
2023-04-05T19:15:23.883Z,11.82
2023-04-05T19:17:28.930Z,11.82
2023-04-05T19:19:33.343Z,11.81
2023-04-05T19:21:37.677Z,11.82
2023-04-05T19:23:42.445Z,11.79
2023-04-05T19:25:48.005Z,11.77
2023-04-05T19:27:52.310Z,11.75
2023-04-05T19:29:56.833Z,11.72
2023-04-05T19:32:01.622Z,11.70
2023-04-05T19:34:07.920Z,11.68
2023-04-05T19:36:12.625Z,11.67
2023-04-05T19:38:17.195Z,11.66
2023-04-05T19:40:23.746Z,11.66
2023-04-05T19:42:31.941Z,11.66
2023-04-05T19:44:50.107Z,11.67
2023-04-05T19:46:56.219Z,11.69
2023-04-05T19:49:07.334Z,11.69
2023-04-05T19:51:14.469Z,11.69
2023-04-05T19:53:41.450Z,11.68
2023-04-05T19:55:47.685Z,11.68
2023-04-05T19:57:53.849Z,11.66
2023-04-05T19:59:59.179Z,11.66
2023-04-05T20:02:12.413Z,11.62
2023-04-05T20:04:21.407Z,11.60
2023-04-05T20:06:27.339Z,11.58
2023-04-05T20:08:32.404Z,11.57
2023-04-05T20:10:42.130Z,11.52
2023-04-05T20:12:46.795Z,11.51
2023-04-05T20:14:53.521Z,11.49
2023-04-05T20:16:59.851Z,11.49
2023-04-05T20:19:05.625Z,11.47
2023-04-05T20:21:10.164Z,11.46
2023-04-05T20:23:16.571Z,11.45
2023-04-05T20:25:39.103Z,11.43
2023-04-05T20:27:42.793Z,11.42
2023-04-05T20:29:47.573Z,11.38
2023-04-05T20:31:54.157Z,11.35
2023-04-05T20:34:12.420Z,11.34
2023-04-05T20:36:19.621Z,11.34
2023-04-05T20:38:23.205Z,11.33
2023-04-05T20:40:27.806Z,11.32
2023-04-05T20:42:34.063Z,11.29
2023-04-05T20:44:38.409Z,11.28
2023-04-05T20:46:42.367Z,11.29
2023-04-05T20:48:48.108Z,11.31
2023-04-05T20:50:52.457Z,11.32
2023-04-05T20:52:56.386Z,11.31
2023-04-05T20:55:00.466Z,11.31
2023-04-05T20:57:04.482Z,11.31
2023-04-05T20:59:08.696Z,11.28
2023-04-05T21:01:13.087Z,11.26
2023-04-05T21:03:17.791Z,11.25
2023-04-05T21:05:23.169Z,11.23
2023-04-05T21:07:27.409Z,11.23
2023-04-05T21:09:36.681Z,11.21
2023-04-05T21:11:40.874Z,11.22
2023-04-05T21:13:44.720Z,11.21
2023-04-05T21:15:50.262Z,11.22
2023-04-05T21:17:54.416Z,11.22
2023-04-05T21:19:59.220Z,11.21
2023-04-05T21:22:05.674Z,11.20
2023-04-05T21:24:10.030Z,11.20
2023-04-05T21:26:13.534Z,11.18
2023-04-05T21:28:18.359Z,11.17
2023-04-05T21:30:22.377Z,11.16
2023-04-05T21:32:26.450Z,11.17
2023-04-05T21:34:31.283Z,11.18
2023-04-05T21:36:35.020Z,11.14
2023-04-05T21:38:40.964Z,11.14
2023-04-05T21:40:46.513Z,11.14
2023-04-05T21:42:51.206Z,11.13
2023-04-05T21:44:55.900Z,11.11
2023-04-05T21:47:02.701Z,11.10
2023-04-05T21:49:07.729Z,11.09
2023-04-05T21:51:13.332Z,11.09
2023-04-05T21:53:20.657Z,11.08
2023-04-05T21:55:27.302Z,11.06
2023-04-05T21:57:33.884Z,11.06
2023-04-05T21:59:38.630Z,11.07
2023-04-05T22:01:43.592Z,11.07
2023-04-05T22:03:47.951Z,11.08
2023-04-05T22:05:52.762Z,11.07
2023-04-05T22:07:57.254Z,11.06
2023-04-05T22:10:01.838Z,11.07
2023-04-05T22:12:08.131Z,11.06
2023-04-05T22:14:12.397Z,11.05
2023-04-05T22:16:16.769Z,11.06
2023-04-05T22:18:21.098Z,11.04
2023-04-05T22:20:25.554Z,11.04
2023-04-05T22:22:29.915Z,11.04
2023-04-05T22:24:34.765Z,11.03
2023-04-05T22:26:40.581Z,11.03
2023-04-05T22:28:46.833Z,11.00
2023-04-05T22:30:51.548Z,10.99
2023-04-05T22:32:56.389Z,10.99
2023-04-05T22:35:00.637Z,10.97
2023-04-05T22:37:04.931Z,10.96
2023-04-05T22:39:09.600Z,10.92
2023-04-05T22:41:14.733Z,10.91
2023-04-05T22:43:19.317Z,10.90
2023-04-05T22:45:26.845Z,10.88
2023-04-05T22:47:31.434Z,10.83
2023-04-05T22:49:36.156Z,10.83
2023-04-05T22:51:40.463Z,10.79
2023-04-05T22:53:45.120Z,10.77
2023-04-05T22:55:49.285Z,10.75
2023-04-05T22:57:54.124Z,10.71
2023-04-05T22:59:58.837Z,10.69
2023-04-05T23:02:04.935Z,10.67
2023-04-05T23:04:10.009Z,10.64
2023-04-05T23:06:16.274Z,10.61
2023-04-05T23:08:20.696Z,10.59
2023-04-05T23:10:24.863Z,10.58
2023-04-05T23:12:31.071Z,10.57
2023-04-05T23:14:35.952Z,10.55
2023-04-05T23:16:39.885Z,10.54
2023-04-05T23:18:46.018Z,10.54
2023-04-05T23:20:50.349Z,10.53
2023-04-05T23:22:54.517Z,10.52
2023-04-05T23:25:01.214Z,10.49
2023-04-05T23:27:05.654Z,10.47
2023-04-05T23:29:10.227Z,10.44
2023-04-05T23:31:14.619Z,10.44
2023-04-05T23:33:18.763Z,10.43
2023-04-05T23:35:24.376Z,10.41
2023-04-05T23:37:28.537Z,10.41
2023-04-05T23:39:33.204Z,10.40
2023-04-05T23:41:38.217Z,10.39
2023-04-05T23:43:42.397Z,10.38
2023-04-05T23:45:47.037Z,10.36
2023-04-05T23:47:52.221Z,10.35
2023-04-05T23:49:57.007Z,10.33
2023-04-05T23:52:02.640Z,10.31
2023-04-05T23:54:06.924Z,10.31
2023-04-05T23:56:14.808Z,10.30
2023-04-05T23:58:19.032Z,10.30
